This is the latest recevied weather packets stored in our database for station/object XE2OR-10. If no packets are shown the sender has not sent any weather packets the latest 10 day(s).
| Time | Temp. | Humidity | Pressure | Rain* | Wind** | Luminosity | Snow |
|---|---|---|---|---|---|---|---|
| 1777836529 | 26.67° C | 54% | 1023.6 hPa | 0 mm | - | 788 W/m² | - |
| 1777836233 | 26.67° C | 53% | 1023.7 hPa | 0 mm | - | 781 W/m² | - |
| 1777835929 | 26.11° C | 55% | 1023.9 hPa | 0 mm | - | 757 W/m² | - |
| 1777835633 | 26.11° C | 54% | 1023.8 hPa | 0 mm | - | 769 W/m² | - |
| 1777835329 | 26.67° C | 53% | 1024.1 hPa | 0 mm | - | 792 W/m² | - |
| 1777835029 | 26.67° C | 55% | 1024.1 hPa | 0 mm | - | 793 W/m² | - |
| 1777834729 | 26.11° C | 55% | 1024.2 hPa | 0 mm | - | 760 W/m² | - |
| 1777834433 | 27.22° C | 53% | 1024.2 hPa | 0 mm | - | 784 W/m² | - |
| 1777834129 | 26.67° C | 53% | 1024.5 hPa | 0 mm | - | 794 W/m² | - |
| 1777833833 | 26.67° C | 55% | 1024.6 hPa | 0 mm | - | 731 W/m² | - |
| 1777833529 | 26.11° C | 56% | 1024.6 hPa | 0 mm | - | 728 W/m² | - |
| 1777833229 | 26.11° C | 54% | 1024.7 hPa | 0 mm | - | 715 W/m² | - |
| 1777832929 | 25.56° C | 55% | 1025 hPa | 0 mm | - | 769 W/m² | - |
| 1777832632 | 26.11° C | 55% | 1024.9 hPa | 0 mm | - | 766 W/m² | - |
| 1777832329 | 26.11° C | 55% | 1025.2 hPa | 0 mm | - | 765 W/m² | - |
| 1777832032 | 25.56° C | 57% | 1025.1 hPa | 0 mm | - | 770 W/m² | - |
| 1777831729 | 25.56° C | 56% | 1025.5 hPa | 0 mm | - | 744 W/m² | - |
| 1777831429 | 25.56° C | 58% | 1025.6 hPa | 0 mm | - | 727 W/m² | - |
| 1777831129 | 25.56° C | 58% | 1025.6 hPa | 0 mm | - | 717 W/m² | - |
| 1777830832 | 25.56° C | 56% | 1025.7 hPa | 0 mm | - | 730 W/m² | - |
| 1777830529 | 24.44° C | 59% | 1025.9 hPa | 0 mm | - | 624 W/m² | - |
| 1777830232 | 25° C | 59% | 1025.8 hPa | 0 mm | - | 411 W/m² | - |
| 1777829929 | 25° C | 59% | 1025.9 hPa | 0 mm | - | 183 W/m² | - |
| 1777829629 | 24.44° C | 58% | 1025.9 hPa | 0 mm | - | 608 W/m² | - |
| 1777829329 | 25° C | 58% | 1026.1 hPa | 0 mm | - | 635 W/m² | - |
* Rain latest hour (hover to see other rain measurements)
** Current wind speed in m/s (hover to see current wind gust speed)